sensor_id;sensor_type;location;lat;lon;timestamp;pressure;altitude;pressure_sealevel;temperature;humidity
43621;BME280;29213;50.770;7.298;2022-08-19T00:02:25;100486.47;;;16.86;55.31
43621;BME280;29213;50.770;7.298;2022-08-19T00:04:50;100566.91;;;17.35;55.29
43621;BME280;29213;50.770;7.298;2022-08-19T00:07:20;100459.16;;;16.55;55.21
43621;BME280;29213;50.770;7.298;2022-08-19T00:09:45;100437.44;;;16.43;55.68
43621;BME280;29213;50.770;7.298;2022-08-19T00:12:11;100430.00;;;16.39;55.27
43621;BME280;29213;50.770;7.298;2022-08-19T00:14:37;100544.56;;;17.07;55.50
43621;BME280;29213;50.770;7.298;2022-08-19T00:17:04;100521.44;;;16.93;55.52
43621;BME280;29213;50.770;7.298;2022-08-19T00:19:32;100582.44;;;17.19;55.66
43621;BME280;29213;50.770;7.298;2022-08-19T00:21:57;100521.19;;;16.74;55.54
43621;BME280;29213;50.770;7.298;2022-08-19T00:24:25;100528.22;;;16.68;55.95
43621;BME280;29213;50.770;7.298;2022-08-19T00:26:51;100563.00;;;16.90;56.13
43621;BME280;29213;50.770;7.298;2022-08-19T00:29:19;100594.25;;;17.05;55.99
43621;BME280;29213;50.770;7.298;2022-08-19T00:31:45;100569.84;;;16.86;55.90
43621;BME280;29213;50.770;7.298;2022-08-19T00:34:12;100502.56;;;16.39;56.05
43621;BME280;29213;50.770;7.298;2022-08-19T00:36:39;100559.06;;;16.73;56.01
43621;BME280;29213;50.770;7.298;2022-08-19T00:39:04;100564.84;;;16.76;56.13
43621;BME280;29213;50.770;7.298;2022-08-19T00:41:30;100533.78;;;16.60;56.17
43621;BME280;29213;50.770;7.298;2022-08-19T00:44:06;100595.69;;;16.94;56.38
43621;BME280;29213;50.770;7.298;2022-08-19T00:46:35;100477.09;;;16.21;56.26
43621;BME280;29213;50.770;7.298;2022-08-19T00:49:07;100529.25;;;16.54;56.47
43621;BME280;29213;50.770;7.298;2022-08-19T00:51:35;100582.66;;;16.91;56.43
43621;BME280;29213;50.770;7.298;2022-08-19T00:54:02;100472.97;;;16.19;56.10
43621;BME280;29213;50.770;7.298;2022-08-19T00:56:28;100531.50;;;16.50;56.38
43621;BME280;29213;50.770;7.298;2022-08-19T00:58:57;100546.22;;;16.54;56.42
43621;BME280;29213;50.770;7.298;2022-08-19T01:01:23;100587.38;;;16.82;56.23
43621;BME280;29213;50.770;7.298;2022-08-19T01:03:49;100548.06;;;16.54;56.44
43621;BME280;29213;50.770;7.298;2022-08-19T01:06:15;100316.13;;;15.10;56.43
43621;BME280;29213;50.770;7.298;2022-08-19T01:08:40;100535.03;;;16.51;56.36
43621;BME280;29213;50.770;7.298;2022-08-19T01:11:06;100539.16;;;16.47;56.27
43621;BME280;29213;50.770;7.298;2022-08-19T01:13:33;100525.94;;;16.38;56.36
43621;BME280;29213;50.770;7.298;2022-08-19T01:16:04;100499.84;;;16.19;56.61
43621;BME280;29213;50.770;7.298;2022-08-19T01:18:31;100496.97;;;16.27;56.47
43621;BME280;29213;50.770;7.298;2022-08-19T01:21:02;100490.56;;;16.28;56.39
43621;BME280;29213;50.770;7.298;2022-08-19T01:23:28;100552.81;;;16.65;56.47
43621;BME280;29213;50.770;7.298;2022-08-19T01:26:10;100557.59;;;16.63;56.42
43621;BME280;29213;50.770;7.298;2022-08-19T01:28:36;100561.13;;;16.64;56.75
43621;BME280;29213;50.770;7.298;2022-08-19T01:31:03;100444.56;;;15.89;56.78
43621;BME280;29213;50.770;7.298;2022-08-19T01:33:29;100453.47;;;15.89;56.81
43621;BME280;29213;50.770;7.298;2022-08-19T01:36:08;100564.41;;;16.52;56.67
43621;BME280;29213;50.770;7.298;2022-08-19T01:38:36;100564.78;;;16.42;57.20
43621;BME280;29213;50.770;7.298;2022-08-19T01:41:04;100583.81;;;16.48;57.01
43621;BME280;29213;50.770;7.298;2022-08-19T01:43:29;100453.75;;;15.59;57.15
43621;BME280;29213;50.770;7.298;2022-08-19T01:45:55;100554.63;;;16.24;56.88
43621;BME280;29213;50.770;7.298;2022-08-19T01:48:20;100469.09;;;15.72;57.09
43621;BME280;29213;50.770;7.298;2022-08-19T01:50:46;100505.53;;;15.88;57.17
43621;BME280;29213;50.770;7.298;2022-08-19T01:53:12;100368.06;;;14.95;57.07
43621;BME280;29213;50.770;7.298;2022-08-19T01:55:41;100584.59;;;16.35;57.12
43621;BME280;29213;50.770;7.298;2022-08-19T01:58:21;100555.00;;;16.14;57.61
43621;BME280;29213;50.770;7.298;2022-08-19T02:00:47;100519.78;;;15.96;57.24
43621;BME280;29213;50.770;7.298;2022-08-19T02:03:13;100495.59;;;15.82;57.42
43621;BME280;29213;50.770;7.298;2022-08-19T02:05:41;100504.50;;;15.89;57.43
43621;BME280;29213;50.770;7.298;2022-08-19T02:08:07;100554.81;;;16.23;57.28
43621;BME280;29213;50.770;7.298;2022-08-19T02:10:33;100510.09;;;15.95;57.54
43621;BME280;29213;50.770;7.298;2022-08-19T02:12:59;100563.09;;;16.35;57.65
43621;BME280;29213;50.770;7.298;2022-08-19T02:15:24;100553.19;;;16.28;57.76
43621;BME280;29213;50.770;7.298;2022-08-19T02:17:51;100535.56;;;16.12;57.56
43621;BME280;29213;50.770;7.298;2022-08-19T02:20:17;100542.81;;;16.19;57.66
43621;BME280;29213;50.770;7.298;2022-08-19T02:22:43;100559.38;;;16.29;57.58
43621;BME280;29213;50.770;7.298;2022-08-19T02:25:13;100538.88;;;16.08;57.39
43621;BME280;29213;50.770;7.298;2022-08-19T02:27:39;100538.03;;;16.07;57.62
43621;BME280;29213;50.770;7.298;2022-08-19T02:30:07;100564.75;;;16.22;57.53
43621;BME280;29213;50.770;7.298;2022-08-19T02:32:33;100551.28;;;16.09;57.31
43621;BME280;29213;50.770;7.298;2022-08-19T02:34:59;100424.50;;;15.22;57.71
43621;BME280;29213;50.770;7.298;2022-08-19T02:37:24;100575.44;;;16.15;57.83
43621;BME280;29213;50.770;7.298;2022-08-19T02:40:09;100517.84;;;15.76;57.89
43621;BME280;29213;50.770;7.298;2022-08-19T02:42:34;100557.59;;;15.94;57.70
43621;BME280;29213;50.770;7.298;2022-08-19T02:44:59;100514.13;;;15.70;57.73
43621;BME280;29213;50.770;7.298;2022-08-19T02:47:25;100508.09;;;15.61;57.87
43621;BME280;29213;50.770;7.298;2022-08-19T02:49:50;100572.13;;;16.00;57.91
43621;BME280;29213;50.770;7.298;2022-08-19T02:52:16;100523.63;;;15.73;57.97
43621;BME280;29213;50.770;7.298;2022-08-19T02:54:42;100501.22;;;15.52;57.88
43621;BME280;29213;50.770;7.298;2022-08-19T02:57:07;100550.94;;;15.83;57.92
43621;BME280;29213;50.770;7.298;2022-08-19T02:59:33;100552.41;;;15.86;57.98
43621;BME280;29213;50.770;7.298;2022-08-19T03:01:58;100533.94;;;15.76;57.91
43621;BME280;29213;50.770;7.298;2022-08-19T03:04:24;100430.66;;;15.16;57.80
43621;BME280;29213;50.770;7.298;2022-08-19T03:06:49;100488.00;;;15.50;57.94
43621;BME280;29213;50.770;7.298;2022-08-19T03:09:16;100576.88;;;16.05;57.78
43621;BME280;29213;50.770;7.298;2022-08-19T03:11:42;100578.72;;;16.04;57.95
43621;BME280;29213;50.770;7.298;2022-08-19T03:14:09;100532.91;;;15.70;57.89
43621;BME280;29213;50.770;7.298;2022-08-19T03:16:49;100576.84;;;15.98;58.21
43621;BME280;29213;50.770;7.298;2022-08-19T03:19:18;100579.53;;;15.98;58.28
43621;BME280;29213;50.770;7.298;2022-08-19T03:21:44;100508.66;;;15.50;58.01
43621;BME280;29213;50.770;7.298;2022-08-19T03:24:10;100538.44;;;15.62;58.31
43621;BME280;29213;50.770;7.298;2022-08-19T03:26:42;100587.09;;;15.87;57.93
43621;BME280;29213;50.770;7.298;2022-08-19T03:29:08;100496.56;;;15.26;58.12
43621;BME280;29213;50.770;7.298;2022-08-19T03:31:36;100582.50;;;15.74;58.24
43621;BME280;29213;50.770;7.298;2022-08-19T03:34:02;100592.88;;;15.84;57.99
43621;BME280;29213;50.770;7.298;2022-08-19T03:36:28;100527.59;;;15.42;58.19
43621;BME280;29213;50.770;7.298;2022-08-19T03:38:56;100521.38;;;15.34;58.23
43621;BME280;29213;50.770;7.298;2022-08-19T03:41:29;100491.34;;;15.17;58.23
43621;BME280;29213;50.770;7.298;2022-08-19T03:43:56;100588.50;;;15.76;58.11
43621;BME280;29213;50.770;7.298;2022-08-19T03:46:28;100579.16;;;15.66;58.18
43621;BME280;29213;50.770;7.298;2022-08-19T03:48:56;100565.25;;;15.55;58.23
43621;BME280;29213;50.770;7.298;2022-08-19T03:51:25;100597.59;;;15.75;58.50
43621;BME280;29213;50.770;7.298;2022-08-19T03:53:52;100589.72;;;15.74;58.19
43621;BME280;29213;50.770;7.298;2022-08-19T03:56:18;100593.44;;;15.73;58.34
43621;BME280;29213;50.770;7.298;2022-08-19T03:58:45;100554.03;;;15.45;58.44
43621;BME280;29213;50.770;7.298;2022-08-19T04:01:14;100598.16;;;15.71;58.36
43621;BME280;29213;50.770;7.298;2022-08-19T04:03:40;100587.16;;;15.59;58.54
43621;BME280;29213;50.770;7.298;2022-08-19T04:06:17;100541.06;;;15.20;58.36
43621;BME280;29213;50.770;7.298;2022-08-19T04:08:45;100613.41;;;15.63;58.48
43621;BME280;29213;50.770;7.298;2022-08-19T04:11:12;100448.63;;;14.59;58.35
43621;BME280;29213;50.770;7.298;2022-08-19T04:13:38;100570.94;;;15.39;58.62
43621;BME280;29213;50.770;7.298;2022-08-19T04:16:05;100614.63;;;15.61;58.45
43621;BME280;29213;50.770;7.298;2022-08-19T04:18:32;100615.03;;;15.58;58.75
43621;BME280;29213;50.770;7.298;2022-08-19T04:20:58;100609.00;;;15.56;58.40
43621;BME280;29213;50.770;7.298;2022-08-19T04:23:24;100544.97;;;15.11;58.44
43621;BME280;29213;50.770;7.298;2022-08-19T04:25:50;100559.28;;;15.25;58.39
43621;BME280;29213;50.770;7.298;2022-08-19T04:28:16;100567.09;;;15.19;58.68
43621;BME280;29213;50.770;7.298;2022-08-19T04:30:43;100399.00;;;13.97;58.71
43621;BME280;29213;50.770;7.298;2022-08-19T04:33:10;100606.44;;;15.41;58.39
43621;BME280;29213;50.770;7.298;2022-08-19T04:35:42;100543.16;;;14.96;58.58
43621;BME280;29213;50.770;7.298;2022-08-19T04:38:08;100533.59;;;14.87;58.60
43621;BME280;29213;50.770;7.298;2022-08-19T04:40:40;100594.09;;;15.18;58.50
43621;BME280;29213;50.770;7.298;2022-08-19T04:43:25;100580.84;;;15.09;58.86
43621;BME280;29213;50.770;7.298;2022-08-19T04:45:50;100559.25;;;14.96;59.00
43621;BME280;29213;50.770;7.298;2022-08-19T04:48:17;100634.06;;;15.34;59.02
43621;BME280;29213;50.770;7.298;2022-08-19T04:50:56;100621.50;;;15.35;59.01
43621;BME280;29213;50.770;7.298;2022-08-19T04:53:26;100564.16;;;14.92;59.01
43621;BME280;29213;50.770;7.298;2022-08-19T04:55:57;100516.53;;;14.66;58.82
43621;BME280;29213;50.770;7.298;2022-08-19T04:58:24;100585.97;;;15.04;59.32
43621;BME280;29213;50.770;7.298;2022-08-19T05:00:50;100636.13;;;15.32;58.88
43621;BME280;29213;50.770;7.298;2022-08-19T05:03:16;100559.41;;;14.88;59.00
43621;BME280;29213;50.770;7.298;2022-08-19T05:05:43;100574.69;;;14.94;59.08
43621;BME280;29213;50.770;7.298;2022-08-19T05:08:11;100604.16;;;15.09;58.85
43621;BME280;29213;50.770;7.298;2022-08-19T05:10:37;100491.56;;;14.43;58.96
43621;BME280;29213;50.770;7.298;2022-08-19T05:13:03;100624.47;;;15.25;59.01
43621;BME280;29213;50.770;7.298;2022-08-19T05:15:29;100646.44;;;15.35;58.83
43621;BME280;29213;50.770;7.298;2022-08-19T05:17:58;100641.88;;;15.29;59.25
43621;BME280;29213;50.770;7.298;2022-08-19T05:20:42;100394.63;;;13.68;58.91
43621;BME280;29213;50.770;7.298;2022-08-19T05:23:26;100542.13;;;14.68;58.81
43621;BME280;29213;50.770;7.298;2022-08-19T05:25:51;100617.41;;;15.17;59.07
43621;BME280;29213;50.770;7.298;2022-08-19T05:28:18;100358.91;;;13.39;58.96
43621;BME280;29213;50.770;7.298;2022-08-19T05:30:45;100614.47;;;15.12;59.04
43621;BME280;29213;50.770;7.298;2022-08-19T05:33:11;100667.13;;;15.42;59.13
43621;BME280;29213;50.770;7.298;2022-08-19T05:35:38;100634.59;;;15.23;59.02
43621;BME280;29213;50.770;7.298;2022-08-19T05:38:05;100646.50;;;15.42;59.01
43621;BME280;29213;50.770;7.298;2022-08-19T05:40:34;100619.78;;;15.27;58.97
43621;BME280;29213;50.770;7.298;2022-08-19T05:43:02;100559.41;;;14.88;59.14
43621;BME280;29213;50.770;7.298;2022-08-19T05:45:28;100658.53;;;15.53;59.14
43621;BME280;29213;50.770;7.298;2022-08-19T05:47:53;100600.09;;;15.20;59.32
43621;BME280;29213;50.770;7.298;2022-08-19T05:50:20;100659.56;;;15.52;59.12
43621;BME280;29213;50.770;7.298;2022-08-19T05:52:45;100671.84;;;15.61;59.14
43621;BME280;29213;50.770;7.298;2022-08-19T05:55:11;100670.03;;;15.69;59.35
43621;BME280;29213;50.770;7.298;2022-08-19T05:57:36;100427.50;;;14.20;59.26
43621;BME280;29213;50.770;7.298;2022-08-19T06:00:04;100574.13;;;15.20;59.19
43621;BME280;29213;50.770;7.298;2022-08-19T06:02:34;100676.72;;;15.80;59.38
43621;BME280;29213;50.770;7.298;2022-08-19T06:05:01;100590.09;;;15.35;59.64
43621;BME280;29213;50.770;7.298;2022-08-19T06:07:28;100615.22;;;15.56;59.63
43621;BME280;29213;50.770;7.298;2022-08-19T06:09:54;100629.31;;;15.65;59.63
43621;BME280;29213;50.770;7.298;2022-08-19T06:12:19;100607.38;;;15.55;59.83
43621;BME280;29213;50.770;7.298;2022-08-19T06:14:51;100670.47;;;16.01;59.69
43621;BME280;29213;50.770;7.298;2022-08-19T06:17:17;100651.16;;;15.90;59.81
43621;BME280;29213;50.770;7.298;2022-08-19T06:19:43;100617.19;;;15.76;59.43
43621;BME280;29213;50.770;7.298;2022-08-19T06:22:09;100665.56;;;16.11;59.88
43621;BME280;29213;50.770;7.298;2022-08-19T06:24:38;100611.25;;;15.81;59.68
43621;BME280;29213;50.770;7.298;2022-08-19T06:27:03;100540.19;;;15.41;59.50
43621;BME280;29213;50.770;7.298;2022-08-19T06:29:31;100670.78;;;16.26;59.64
43621;BME280;29213;50.770;7.298;2022-08-19T06:31:59;100672.25;;;16.29;59.50
43621;BME280;29213;50.770;7.298;2022-08-19T06:34:26;100551.19;;;15.53;59.43
43621;BME280;29213;50.770;7.298;2022-08-19T06:36:54;100672.72;;;16.39;59.96
43621;BME280;29213;50.770;7.298;2022-08-19T06:39:23;100637.25;;;16.15;60.00
43621;BME280;29213;50.770;7.298;2022-08-19T06:41:52;100672.31;;;16.49;59.61
43621;BME280;29213;50.770;7.298;2022-08-19T06:44:19;100667.78;;;16.56;59.62
43621;BME280;29213;50.770;7.298;2022-08-19T06:46:45;100624.72;;;16.36;59.77
43621;BME280;29213;50.770;7.298;2022-08-19T06:49:10;100674.03;;;16.70;59.71
43621;BME280;29213;50.770;7.298;2022-08-19T06:51:41;100679.03;;;16.80;59.83
43621;BME280;29213;50.770;7.298;2022-08-19T06:54:07;100674.91;;;16.85;59.69
43621;BME280;29213;50.770;7.298;2022-08-19T06:56:38;100610.50;;;16.49;59.80
43621;BME280;29213;50.770;7.298;2022-08-19T06:59:07;100622.53;;;16.67;59.85
43621;BME280;29213;50.770;7.298;2022-08-19T07:01:34;100682.41;;;17.16;60.16
43621;BME280;29213;50.770;7.298;2022-08-19T07:03:59;100652.22;;;17.01;60.10
43621;BME280;29213;50.770;7.298;2022-08-19T07:06:26;100657.19;;;17.11;60.44
43621;BME280;29213;50.770;7.298;2022-08-19T07:08:52;100667.94;;;17.24;60.42
43621;BME280;29213;50.770;7.298;2022-08-19T07:11:18;100331.13;;;14.98;60.15
43621;BME280;29213;50.770;7.298;2022-08-19T07:13:44;100654.28;;;17.32;60.43
43621;BME280;29213;50.770;7.298;2022-08-19T07:16:17;100696.91;;;17.69;59.92
43621;BME280;29213;50.770;7.298;2022-08-19T07:18:48;100671.63;;;17.63;60.11
43621;BME280;29213;50.770;7.298;2022-08-19T07:21:17;100699.81;;;17.88;60.04
43621;BME280;29213;50.770;7.298;2022-08-19T07:23:43;100640.81;;;17.59;59.99
43621;BME280;29213;50.770;7.298;2022-08-19T07:26:18;100695.00;;;18.03;59.77
43621;BME280;29213;50.770;7.298;2022-08-19T07:28:44;100704.53;;;18.13;59.93
43621;BME280;29213;50.770;7.298;2022-08-19T07:31:16;100708.03;;;18.20;59.67
43621;BME280;29213;50.770;7.298;2022-08-19T07:33:44;100685.63;;;18.20;59.53
43621;BME280;29213;50.770;7.298;2022-08-19T07:36:11;100412.00;;;16.60;59.42
43621;BME280;29213;50.770;7.298;2022-08-19T07:38:42;100684.06;;;18.58;59.10
43621;BME280;29213;50.770;7.298;2022-08-19T07:41:11;100707.53;;;18.89;59.11
43621;BME280;29213;50.770;7.298;2022-08-19T07:43:38;100700.06;;;18.91;58.65
43621;BME280;29213;50.770;7.298;2022-08-19T07:46:03;100697.31;;;18.98;58.48
43621;BME280;29213;50.770;7.298;2022-08-19T07:48:29;100707.66;;;19.01;58.39
43621;BME280;29213;50.770;7.298;2022-08-19T07:51:02;100691.88;;;19.05;58.33
43621;BME280;29213;50.770;7.298;2022-08-19T07:53:30;100670.34;;;18.98;57.92
43621;BME280;29213;50.770;7.298;2022-08-19T07:55:56;100679.72;;;19.21;57.55
43621;BME280;29213;50.770;7.298;2022-08-19T07:58:31;100673.47;;;19.20;57.69
43621;BME280;29213;50.770;7.298;2022-08-19T08:00:57;100704.00;;;19.53;57.48
43621;BME280;29213;50.770;7.298;2022-08-19T08:03:23;100711.75;;;19.68;56.77
43621;BME280;29213;50.770;7.298;2022-08-19T08:06:08;100710.13;;;19.86;56.13
43621;BME280;29213;50.770;7.298;2022-08-19T08:08:52;100707.22;;;19.87;56.36
43621;BME280;29213;50.770;7.298;2022-08-19T08:11:40;100706.53;;;19.92;56.01
43621;BME280;29213;50.770;7.298;2022-08-19T08:14:07;100642.84;;;19.59;56.04
43621;BME280;29213;50.770;7.298;2022-08-19T08:16:35;100712.13;;;20.16;55.79
43621;BME280;29213;50.770;7.298;2022-08-19T08:19:03;100718.06;;;20.25;55.58
43621;BME280;29213;50.770;7.298;2022-08-19T08:21:28;100643.53;;;19.73;55.48
43621;BME280;29213;50.770;7.298;2022-08-19T08:23:53;100559.44;;;19.25;55.07
43621;BME280;29213;50.770;7.298;2022-08-19T08:26:20;100708.94;;;20.38;54.90
43621;BME280;29213;50.770;7.298;2022-08-19T08:28:48;100721.34;;;20.64;54.25
43621;BME280;29213;50.770;7.298;2022-08-19T08:31:14;100691.22;;;20.42;54.37
43621;BME280;29213;50.770;7.298;2022-08-19T08:33:40;100517.03;;;19.51;53.71
43621;BME280;29213;50.770;7.298;2022-08-19T08:36:08;100666.81;;;20.49;53.72
43621;BME280;29213;50.770;7.298;2022-08-19T08:38:34;100726.28;;;20.86;53.89
43621;BME280;29213;50.770;7.298;2022-08-19T08:41:09;100722.50;;;20.87;53.79
43621;BME280;29213;50.770;7.298;2022-08-19T08:43:40;100544.78;;;19.77;53.56
43621;BME280;29213;50.770;7.298;2022-08-19T08:46:12;100707.94;;;20.69;53.42
43621;BME280;29213;50.770;7.298;2022-08-19T08:48:50;100723.31;;;20.88;53.31
43621;BME280;29213;50.770;7.298;2022-08-19T08:51:24;100728.19;;;20.98;52.73
43621;BME280;29213;50.770;7.298;2022-08-19T08:53:52;100592.78;;;20.12;52.41
43621;BME280;29213;50.770;7.298;2022-08-19T08:56:20;100674.59;;;20.88;52.13
43621;BME280;29213;50.770;7.298;2022-08-19T08:58:59;100725.44;;;21.40;51.82
43621;BME280;29213;50.770;7.298;2022-08-19T09:01:26;100727.09;;;21.41;51.08
43621;BME280;29213;50.770;7.298;2022-08-19T09:03:52;100694.13;;;21.44;50.60
43621;BME280;29213;50.770;7.298;2022-08-19T09:09:02;100722.78;;;21.76;50.40
43621;BME280;29213;50.770;7.298;2022-08-19T09:11:44;100721.72;;;21.89;49.72
43621;BME280;29213;50.770;7.298;2022-08-19T09:14:32;100707.31;;;22.00;49.51
43621;BME280;29213;50.770;7.298;2022-08-19T09:17:00;100533.50;;;21.20;49.39
43621;BME280;29213;50.770;7.298;2022-08-19T09:19:29;100623.09;;;21.78;49.18
43621;BME280;29213;50.770;7.298;2022-08-19T09:21:54;100699.06;;;22.07;48.37
43621;BME280;29213;50.770;7.298;2022-08-19T09:24:20;100657.63;;;21.83;48.47
43621;BME280;29213;50.770;7.298;2022-08-19T09:26:45;100692.69;;;22.01;47.66
43621;BME280;29213;50.770;7.298;2022-08-19T09:29:12;100637.00;;;21.70;46.77
43621;BME280;29213;50.770;7.298;2022-08-19T09:31:37;100665.25;;;21.98;47.20
43621;BME280;29213;50.770;7.298;2022-08-19T09:34:03;100665.69;;;22.19;47.09
43621;BME280;29213;50.770;7.298;2022-08-19T09:36:31;100686.75;;;22.40;46.89
43621;BME280;29213;50.770;7.298;2022-08-19T09:38:59;100627.75;;;21.95;46.27
43621;BME280;29213;50.770;7.298;2022-08-19T09:41:25;100681.59;;;22.27;47.02
43621;BME280;29213;50.770;7.298;2022-08-19T09:43:53;100703.25;;;22.39;47.14
43621;BME280;29213;50.770;7.298;2022-08-19T09:46:19;100646.16;;;22.05;47.33
43621;BME280;29213;50.770;7.298;2022-08-19T09:48:47;100706.94;;;22.62;46.66
43621;BME280;29213;50.770;7.298;2022-08-19T09:51:16;100614.38;;;22.17;45.87
43621;BME280;29213;50.770;7.298;2022-08-19T09:53:44;100666.16;;;22.57;45.55
43621;BME280;29213;50.770;7.298;2022-08-19T09:56:11;100540.19;;;21.53;45.25
43621;BME280;29213;50.770;7.298;2022-08-19T09:58:37;100648.91;;;22.22;45.46
43621;BME280;29213;50.770;7.298;2022-08-19T10:01:04;100688.44;;;22.59;46.22
43621;BME280;29213;50.770;7.298;2022-08-19T10:03:31;100656.44;;;22.32;45.73
43621;BME280;29213;50.770;7.298;2022-08-19T10:06:00;100637.94;;;22.28;45.94
43621;BME280;29213;50.770;7.298;2022-08-19T10:08:28;100497.00;;;21.34;44.87
43621;BME280;29213;50.770;7.298;2022-08-19T10:10:55;100702.84;;;22.59;45.84
43621;BME280;29213;50.770;7.298;2022-08-19T10:13:23;100707.63;;;22.69;45.52
43621;BME280;29213;50.770;7.298;2022-08-19T10:15:50;100713.78;;;22.64;45.69
43621;BME280;29213;50.770;7.298;2022-08-19T10:18:18;100694.56;;;22.66;45.81
43621;BME280;29213;50.770;7.298;2022-08-19T10:20:44;100646.22;;;22.51;45.78
43621;BME280;29213;50.770;7.298;2022-08-19T10:23:11;100638.59;;;22.48;45.07
43621;BME280;29213;50.770;7.298;2022-08-19T10:25:37;100623.09;;;22.48;45.38
43621;BME280;29213;50.770;7.298;2022-08-19T10:28:03;100684.75;;;23.11;45.31
43621;BME280;29213;50.770;7.298;2022-08-19T10:30:29;100684.84;;;23.33;45.06
43621;BME280;29213;50.770;7.298;2022-08-19T10:32:55;100654.88;;;23.28;43.93
43621;BME280;29213;50.770;7.298;2022-08-19T10:35:20;100603.78;;;23.08;43.89
43621;BME280;29213;50.770;7.298;2022-08-19T10:37:46;100658.25;;;23.53;44.16
43621;BME280;29213;50.770;7.298;2022-08-19T10:40:11;100648.94;;;23.48;44.00
43621;BME280;29213;50.770;7.298;2022-08-19T10:42:37;100614.31;;;23.04;43.55
43621;BME280;29213;50.770;7.298;2022-08-19T10:45:04;100530.72;;;22.72;43.04
43621;BME280;29213;50.770;7.298;2022-08-19T10:47:32;100679.81;;;23.59;42.62
43621;BME280;29213;50.770;7.298;2022-08-19T10:49:58;100649.09;;;23.42;42.87
43621;BME280;29213;50.770;7.298;2022-08-19T10:52:46;100669.09;;;23.70;42.29
43621;BME280;29213;50.770;7.298;2022-08-19T10:55:11;100616.34;;;23.31;42.20
43621;BME280;29213;50.770;7.298;2022-08-19T10:57:55;100660.84;;;23.65;42.70
43621;BME280;29213;50.770;7.298;2022-08-19T11:00:25;100610.13;;;23.53;42.81
43621;BME280;29213;50.770;7.298;2022-08-19T11:02:51;100527.81;;;23.13;42.58
43621;BME280;29213;50.770;7.298;2022-08-19T11:05:17;100543.22;;;23.07;42.00
43621;BME280;29213;50.770;7.298;2022-08-19T11:07:43;100658.19;;;23.87;42.28
43621;BME280;29213;50.770;7.298;2022-08-19T11:10:12;100532.84;;;23.04;42.46
43621;BME280;29213;50.770;7.298;2022-08-19T11:12:39;100652.50;;;23.88;41.48
43621;BME280;29213;50.770;7.298;2022-08-19T11:15:09;100648.09;;;23.87;41.80
43621;BME280;29213;50.770;7.298;2022-08-19T11:17:40;100613.16;;;23.74;41.57
43621;BME280;29213;50.770;7.298;2022-08-19T11:20:10;100589.78;;;23.56;40.70
43621;BME280;29213;50.770;7.298;2022-08-19T11:22:36;100610.22;;;23.58;40.75
43621;BME280;29213;50.770;7.298;2022-08-19T11:25:01;100543.91;;;23.20;40.69
43621;BME280;29213;50.770;7.298;2022-08-19T11:27:27;100633.50;;;23.71;40.28
43621;BME280;29213;50.770;7.298;2022-08-19T11:29:54;100638.03;;;23.66;41.23
43621;BME280;29213;50.770;7.298;2022-08-19T11:32:19;100558.75;;;23.12;41.06
43621;BME280;29213;50.770;7.298;2022-08-19T11:34:45;100646.19;;;23.66;41.52
43621;BME280;29213;50.770;7.298;2022-08-19T11:37:10;100607.41;;;23.53;40.62
43621;BME280;29213;50.770;7.298;2022-08-19T11:39:36;100585.28;;;23.44;40.40
43621;BME280;29213;50.770;7.298;2022-08-19T11:42:04;100589.94;;;23.66;39.88
43621;BME280;29213;50.770;7.298;2022-08-19T11:44:53;100584.81;;;23.70;40.34
43621;BME280;29213;50.770;7.298;2022-08-19T11:47:19;100624.66;;;24.04;39.84
43621;BME280;29213;50.770;7.298;2022-08-19T11:49:46;100583.81;;;23.76;40.12
43621;BME280;29213;50.770;7.298;2022-08-19T11:52:11;100583.88;;;23.81;39.72
43621;BME280;29213;50.770;7.298;2022-08-19T11:54:42;100563.84;;;23.65;39.38
43621;BME280;29213;50.770;7.298;2022-08-19T11:57:08;100609.13;;;24.04;38.56
43621;BME280;29213;50.770;7.298;2022-08-19T11:59:33;100529.91;;;23.51;38.71
43621;BME280;29213;50.770;7.298;2022-08-19T12:01:58;100412.16;;;22.78;39.13
43621;BME280;29213;50.770;7.298;2022-08-19T12:04:24;100502.63;;;23.40;38.61
43621;BME280;29213;50.770;7.298;2022-08-19T12:06:49;100319.09;;;22.21;38.77
43621;BME280;29213;50.770;7.298;2022-08-19T12:09:15;100647.66;;;24.40;39.29
43621;BME280;29213;50.770;7.298;2022-08-19T12:11:43;100509.72;;;23.64;37.73
43621;BME280;29213;50.770;7.298;2022-08-19T12:14:11;100468.75;;;23.48;37.57
43621;BME280;29213;50.770;7.298;2022-08-19T12:16:36;100633.13;;;24.57;37.83
43621;BME280;29213;50.770;7.298;2022-08-19T12:19:03;100625.75;;;24.58;37.42
43621;BME280;29213;50.770;7.298;2022-08-19T12:21:32;100449.34;;;23.39;37.77
43621;BME280;29213;50.770;7.298;2022-08-19T12:24:00;100615.50;;;24.37;37.79
43621;BME280;29213;50.770;7.298;2022-08-19T12:26:27;100540.59;;;23.74;37.46
43621;BME280;29213;50.770;7.298;2022-08-19T12:28:54;100634.03;;;24.18;37.71
43621;BME280;29213;50.770;7.298;2022-08-19T12:31:20;100613.84;;;24.09;38.04
43621;BME280;29213;50.770;7.298;2022-08-19T12:33:46;100607.94;;;24.17;38.23
43621;BME280;29213;50.770;7.298;2022-08-19T12:36:14;100439.53;;;23.11;37.94
43621;BME280;29213;50.770;7.298;2022-08-19T12:38:41;100543.66;;;23.83;37.77
43621;BME280;29213;50.770;7.298;2022-08-19T12:41:09;100397.03;;;22.99;37.64
43621;BME280;29213;50.770;7.298;2022-08-19T12:43:36;100559.09;;;24.05;37.86
43621;BME280;29213;50.770;7.298;2022-08-19T12:46:02;100558.66;;;23.86;37.46
43621;BME280;29213;50.770;7.298;2022-08-19T12:48:30;100608.91;;;24.28;37.55
43621;BME280;29213;50.770;7.298;2022-08-19T12:50:55;100535.69;;;23.77;37.82
43621;BME280;29213;50.770;7.298;2022-08-19T12:53:21;100537.16;;;23.84;36.84
43621;BME280;29213;50.770;7.298;2022-08-19T12:55:47;100578.31;;;24.21;37.29
43621;BME280;29213;50.770;7.298;2022-08-19T12:58:12;100592.34;;;24.35;37.03